Time;durP1;ratioP1;P1;durP2;ratioP2;P2;SDS_P1;SDS_P2;PMS_P1;PMS_P2;Temp;Humidity;BMP_temperature;BMP_pressure;BME280_temperature;BME280_humidity;BME280_pressure;Samples;Min_cycle;Max_cycle;Signal;HPM_P1;HPM_P2
2022/04/19 00:00:19;;;;;;;6.05;2.78;;;2.30;99.90;;;0.77;94.08;101322.94;4969212;28;20030;-74
2022/04/19 00:02:45;;;;;;;5.15;2.60;;;2.30;99.90;;;0.87;95.84;101321.25;4979515;28;20025;-75
2022/04/19 00:05:11;;;;;;;4.57;2.60;;;2.40;99.90;;;0.99;97.38;101317.81;4981625;28;20034;-74
2022/04/19 00:07:37;;;;;;;3.70;2.47;;;2.50;99.90;;;1.10;98.75;101317.84;4980222;28;20514;-75
2022/04/19 00:10:05;;;;;;;4.82;2.60;;;2.60;99.90;;;1.15;100.00;101324.78;4970411;28;20038;-74
2022/04/19 00:12:32;;;;;;;9.05;3.33;;;2.70;99.90;;;1.16;100.00;101315.25;4971099;28;20030;-75
2022/04/19 00:14:59;;;;;;;3.38;2.30;;;2.70;99.90;;;1.26;100.00;101314.41;4971115;28;20046;-74
2022/04/19 00:17:25;;;;;;;7.68;2.47;;;2.80;99.90;;;1.33;100.00;101313.53;4980715;28;20107;-75
2022/04/19 00:19:50;;;;;;;5.43;2.50;;;2.80;99.90;;;1.34;100.00;101317.00;4979927;28;20475;-75
2022/04/19 00:22:17;;;;;;;7.00;2.58;;;2.80;99.90;;;1.32;98.93;101321.31;4980260;28;20117;-75
2022/04/19 00:24:44;;;;;;;7.35;2.65;;;2.80;99.90;;;1.30;97.67;101328.25;4969470;28;20026;-75
2022/04/19 00:27:10;;;;;;;6.75;2.90;;;2.80;99.90;;;1.28;96.65;101328.25;4977546;28;20572;-75
2022/04/19 00:29:37;;;;;;;6.55;2.63;;;2.70;99.90;;;1.25;95.89;101329.97;4972606;28;20034;-75
2022/04/19 00:32:04;;;;;;;7.22;3.17;;;2.70;99.90;;;1.22;95.41;101325.66;4980879;28;20030;-75
2022/04/19 00:34:33;;;;;;;11.13;3.15;;;2.70;99.90;;;1.22;94.99;101326.50;4980198;28;20089;-74
2022/04/19 00:37:01;;;;;;;5.63;2.83;;;2.70;99.90;;;1.25;94.51;101325.63;4980878;28;20061;-75
2022/04/19 00:39:27;;;;;;;3.13;2.47;;;2.70;99.90;;;1.23;95.06;101319.56;4962577;28;20099;-74
2022/04/19 00:41:55;;;;;;;10.43;2.90;;;2.70;99.90;;;1.26;94.61;101322.19;4970570;28;20057;-75
2022/04/19 00:44:23;;;;;;;10.82;3.10;;;2.70;99.90;;;1.27;94.79;101323.06;4961695;28;20038;-75
2022/04/19 00:46:49;;;;;;;4.45;3.00;;;2.70;99.90;;;1.28;94.82;101317.88;4972410;28;20084;-75
2022/04/19 00:49:17;;;;;;;6.38;2.92;;;2.70;99.90;;;1.28;95.22;101328.25;4981773;28;20137;-75
2022/04/19 00:51:44;;;;;;;4.32;2.45;;;2.70;99.90;;;1.29;94.96;101319.59;4977181;28;20112;-74
2022/04/19 00:54:13;;;;;;;4.70;2.95;;;2.80;99.90;;;1.30;95.40;101317.88;4970663;28;20391;-74
2022/04/19 00:56:40;;;;;;;6.68;3.13;;;2.80;99.90;;;1.34;95.73;101322.19;4974340;28;20034;-75
2022/04/19 00:59:10;;;;;;;6.65;2.72;;;2.80;99.90;;;1.37;95.75;101311.81;4964425;28;20869;-74
2022/04/19 01:01:37;;;;;;;7.63;3.05;;;2.80;99.90;;;1.38;96.06;101321.31;4984971;28;20454;-75
2022/04/19 01:04:04;;;;;;;5.18;2.75;;;2.80;99.90;;;1.38;96.19;101323.91;4966907;28;20502;-75
2022/04/19 01:06:31;;;;;;;5.13;2.53;;;2.80;99.90;;;1.39;96.74;101312.69;4963171;28;20044;-75
2022/04/19 01:08:58;;;;;;;4.68;2.42;;;2.80;99.90;;;1.42;97.22;101313.53;4965740;28;20692;-74
2022/04/19 01:14:08;;;;;;;9.40;2.65;;;2.90;99.90;;;1.44;96.97;101322.19;4973029;28;20168;-75
2022/04/19 01:16:35;;;;;;;5.97;3.05;;;2.90;99.90;;;1.48;97.29;101322.22;4982465;28;20034;-75
2022/04/19 01:19:03;;;;;;;6.28;2.80;;;2.90;99.90;;;1.48;97.34;101310.09;4972918;28;20129;-75
2022/04/19 01:21:50;;;;;;;7.93;2.60;;;2.90;99.90;;;1.48;97.07;101317.88;4972704;28;20050;-74
2022/04/19 01:24:20;;;;;;;6.32;2.72;;;2.90;99.90;;;1.47;97.14;101310.97;4971624;28;20040;-75
2022/04/19 01:26:47;;;;;;;3.33;2.28;;;2.90;99.90;;;1.47;97.02;101308.38;4983049;28;20389;-75
2022/04/19 01:29:13;;;;;;;4.20;2.72;;;2.90;99.90;;;1.45;97.03;101307.50;4957501;28;20037;-74
2022/04/19 01:31:42;;;;;;;5.07;3.00;;;2.90;99.90;;;1.46;96.81;101308.38;4973748;28;20041;-75
2022/04/19 01:34:09;;;;;;;5.90;3.10;;;2.90;99.90;;;1.46;96.89;101300.59;4964279;28;20050;-75
2022/04/19 01:36:37;;;;;;;6.22;3.10;;;2.90;99.90;;;1.47;96.95;101300.59;4982399;28;20034;-75
2022/04/19 01:39:10;;;;;;;4.65;3.00;;;2.90;99.90;;;1.47;97.01;101307.50;4973781;28;20026;-76
2022/04/19 01:41:38;;;;;;;5.43;3.20;;;2.90;99.90;;;1.46;97.76;101304.03;4972738;28;20022;-75
2022/04/19 01:44:06;;;;;;;5.05;2.80;;;3.00;99.90;;;1.50;98.00;101310.09;4970556;28;20085;-75
2022/04/19 01:46:33;;;;;;;8.88;2.97;;;3.00;99.90;;;1.52;97.67;101311.81;4967536;28;20037;-74
2022/04/19 01:49:06;;;;;;;7.80;3.15;;;3.00;99.90;;;1.49;97.58;101303.16;4973097;28;20027;-74
2022/04/19 01:51:32;;;;;;;6.90;2.88;;;3.00;99.90;;;1.50;97.71;101300.56;4981129;28;20062;-75
2022/04/19 01:53:57;;;;;;;4.30;2.92;;;2.90;99.90;;;1.49;97.20;101296.28;4981328;28;20070;-75
2022/04/19 01:56:23;;;;;;;5.90;3.30;;;2.90;99.90;;;1.45;97.26;101289.34;4981564;28;20490;-75
2022/04/19 01:58:49;;;;;;;8.57;2.92;;;2.90;99.90;;;1.43;97.09;101289.34;4973090;28;20831;-75
2022/04/19 02:01:15;;;;;;;5.72;3.05;;;2.90;99.90;;;1.41;97.36;101287.59;4973383;28;20032;-74
2022/04/19 02:03:42;;;;;;;6.70;2.80;;;2.80;99.90;;;1.37;97.22;101289.31;4980446;28;20514;-75
2022/04/19 02:06:09;;;;;;;8.98;2.70;;;2.80;99.90;;;1.34;96.96;101283.25;4973844;28;20038;-75
2022/04/19 02:08:34;;;;;;;5.28;3.03;;;2.80;99.90;;;1.31;96.72;101284.13;4965222;28;20077;-75
2022/04/19 02:11:00;;;;;;;8.00;3.13;;;2.80;99.90;;;1.30;96.81;101286.75;4966947;28;20454;-75
2022/04/19 02:13:28;;;;;;;6.65;3.38;;;2.80;99.90;;;1.26;96.67;101283.28;4981787;28;20037;-75
2022/04/19 02:15:53;;;;;;;3.83;2.72;;;2.70;99.90;;;1.24;96.91;101282.41;4972402;28;20062;-74
2022/04/19 02:18:20;;;;;;;7.00;3.22;;;2.70;99.90;;;1.19;97.67;101281.56;4973422;28;20034;-75
2022/04/19 02:20:46;;;;;;;7.95;3.55;;;2.70;99.90;;;1.16;98.12;101273.75;4981863;28;20026;-75
2022/04/19 02:23:13;;;;;;;6.68;3.63;;;2.60;99.90;;;1.15;98.07;101275.50;4971401;28;20048;-75
2022/04/19 02:25:39;;;;;;;5.38;3.53;;;2.60;99.90;;;1.10;98.15;101276.34;4979325;28;20544;-75
2022/04/19 02:28:07;;;;;;;5.20;2.88;;;2.60;99.90;;;1.05;98.09;101286.69;4970387;28;20023;-75
2022/04/19 02:30:33;;;;;;;9.02;3.58;;;2.50;99.90;;;0.99;97.96;101278.91;4980349;28;20410;-75
2022/04/19 02:33:02;;;;;;;6.18;3.65;;;2.50;99.90;;;0.92;97.97;101282.38;4972994;28;20588;-75
2022/04/19 02:35:31;;;;;;;4.88;3.25;;;2.40;99.90;;;0.89;98.19;101284.97;4973681;28;20141;-75
2022/04/19 02:37:59;;;;;;;7.90;4.05;;;2.40;99.90;;;0.86;97.69;101290.13;4980255;28;20042;-75
2022/04/19 02:40:26;;;;;;;6.28;3.97;;;2.40;99.90;;;0.82;98.52;101297.00;4964043;28;20378;-74
2022/04/19 02:42:55;;;;;;;7.72;3.47;;;2.30;99.90;;;0.77;100.00;101294.41;4982558;28;20022;-74
2022/04/19 02:45:22;;;;;;;9.20;3.30;;;2.40;99.90;;;0.82;100.00;101294.41;4984157;28;20026;-75
2022/04/19 02:48:01;;;;;;;5.78;3.42;;;2.40;99.90;;;0.88;100.00;101293.59;4977528;28;20035;-75
2022/04/19 02:50:28;;;;;;;6.15;3.33;;;2.40;99.90;;;0.88;100.00;101289.25;4970628;28;20022;-74
2022/04/19 02:52:54;;;;;;;4.38;3.08;;;2.40;99.90;;;0.86;100.00;101290.97;4997386;28;20038;-75
2022/04/19 02:55:20;;;;;;;4.45;3.17;;;2.40;99.90;;;0.80;100.00;101291.84;4984164;28;20026;-75
2022/04/19 02:57:45;;;;;;;7.03;3.60;;;2.30;99.90;;;0.74;100.00;101290.97;4971616;28;20060;-75
2022/04/19 03:00:13;;;;;;;4.45;3.45;;;2.30;99.90;;;0.69;99.26;101290.97;4972357;28;20104;-75
2022/04/19 03:02:39;;;;;;;9.65;3.30;;;2.20;99.90;;;0.64;99.32;101289.19;4981552;28;20398;-75
2022/04/19 03:05:05;;;;;;;9.07;3.72;;;2.10;99.90;;;0.59;98.66;101284.88;4964793;28;20033;-75
2022/04/19 03:07:32;;;;;;;5.13;3.42;;;2.10;99.90;;;0.57;98.51;101284.00;4979878;28;20042;-75
2022/04/19 03:09:58;;;;;;;7.45;3.47;;;2.10;99.90;;;0.57;98.71;101290.91;4982960;28;20030;-75
2022/04/19 03:12:24;;;;;;;5.18;3.15;;;2.10;99.90;;;0.54;99.68;101278.81;4976766;28;20073;-74
2022/04/19 03:14:50;;;;;;;6.30;2.92;;;2.10;99.90;;;0.57;100.00;101283.13;4965910;28;20037;-75
2022/04/19 03:17:15;;;;;;;6.38;3.05;;;2.10;99.90;;;0.63;100.00;101282.28;4978599;28;20121;-76
2022/04/19 03:19:44;;;;;;;6.32;2.97;;;2.20;99.90;;;0.64;100.00;101276.25;4984411;28;20397;-75
2022/04/19 03:22:10;;;;;;;4.95;2.88;;;2.20;99.90;;;0.64;100.00;101278.84;4963531;28;20053;-75
2022/04/19 03:30:05;;;;;;;4.22;3.05;;;2.10;99.90;;;0.55;100.00;101287.44;4966104;28;20124;-75
2022/04/19 03:32:32;;;;;;;5.93;3.30;;;2.10;99.90;;;0.52;100.00;101282.25;4978969;28;20464;-74
2022/04/19 03:34:58;;;;;;;6.45;3.40;;;2.10;99.90;;;0.50;100.00;101283.97;4964149;28;20042;-75
2022/04/19 03:37:24;;;;;;;5.70;3.50;;;2.00;99.90;;;0.44;100.00;101274.44;4976265;28;20518;-74
2022/04/19 03:39:50;;;;;;;10.98;2.90;;;2.00;99.90;;;0.40;100.00;101276.16;4978280;28;20756;-75
2022/04/19 03:42:16;;;;;;;15.55;3.25;;;1.90;99.90;;;0.35;100.00;101272.69;4979071;28;20111;-75
2022/04/19 03:44:42;;;;;;;6.78;3.47;;;1.90;99.90;;;0.30;100.00;101276.09;4982274;28;20026;-75
2022/04/19 03:47:08;;;;;;;7.75;3.30;;;1.80;99.90;;;0.26;99.73;101274.34;4962258;28;20034;-75
2022/04/19 03:49:37;;;;;;;8.13;3.67;;;1.80;99.90;;;0.23;99.65;101279.53;4948045;28;20040;-75
2022/04/19 03:52:05;;;;;;;10.55;3.85;;;1.80;99.90;;;0.20;99.74;101283.84;4980280;28;20438;-75
2022/04/19 03:54:34;;;;;;;7.80;3.55;;;1.70;99.90;;;0.22;99.99;101282.97;4975758;28;20030;-75
2022/04/19 03:57:07;;;;;;;8.07;3.60;;;1.80;99.90;;;0.24;100.00;101287.31;4963838;28;20037;-75
2022/04/19 03:59:36;;;;;;;6.45;3.88;;;1.80;99.90;;;0.27;100.00;101282.16;4946141;28;20043;-74
2022/04/19 04:02:02;;;;;;;8.60;3.85;;;1.80;99.90;;;0.31;100.00;101276.13;4981777;28;20088;-75
2022/04/19 04:04:33;;;;;;;5.75;3.83;;;1.80;99.90;;;0.32;100.00;101271.81;4978301;28;20034;-74
2022/04/19 04:07:04;;;;;;;9.68;3.58;;;1.80;99.90;;;0.33;100.00;101281.31;4984195;28;20056;-75
2022/04/19 04:09:35;;;;;;;7.38;4.38;;;1.80;99.90;;;0.37;100.00;101276.16;4992405;28;20034;-75
2022/04/19 04:12:09;;;;;;;12.82;4.40;;;1.90;99.90;;;0.43;100.00;101275.28;4981564;28;20437;-75
2022/04/19 04:14:36;;;;;;;7.32;4.32;;;1.90;99.90;;;0.55;100.00;101266.72;4971375;28;20038;-75
2022/04/19 04:17:03;;;;;;;6.60;3.88;;;2.00;99.90;;;0.64;100.00;101271.91;4981448;28;20087;-75
2022/04/19 04:19:29;;;;;;;9.70;3.92;;;2.10;99.90;;;0.67;100.00;101271.94;4970730;28;20045;-75
2022/04/19 04:21:55;;;;;;;7.80;4.00;;;2.10;99.90;;;0.74;100.00;101265.91;4970245;28;20034;-75
2022/04/19 04:24:21;;;;;;;9.85;5.07;;;2.20;99.90;;;0.81;100.00;101269.38;4970464;28;20026;-75
2022/04/19 04:26:47;;;;;;;13.88;4.38;;;2.30;99.90;;;0.92;100.00;101267.66;4971496;28;20038;-75
2022/04/19 04:29:13;;;;;;;8.27;4.47;;;2.30;99.90;;;0.97;100.00;101265.97;4978693;28;20050;-75
2022/04/19 04:31:40;;;;;;;9.38;4.38;;;2.40;99.90;;;1.07;100.00;101263.38;4971072;28;20565;-75
2022/04/19 04:34:07;;;;;;;9.27;4.57;;;2.40;99.90;;;1.17;100.00;101271.16;4977789;28;20038;-75
2022/04/19 04:36:34;;;;;;;9.75;4.78;;;2.50;99.90;;;1.27;100.00;101271.16;4954022;28;20053;-75
2022/04/19 04:39:00;;;;;;;9.07;4.55;;;2.60;99.90;;;1.37;100.00;101275.50;4983632;28;20091;-75
2022/04/19 04:41:26;;;;;;;9.43;4.80;;;2.70;99.90;;;1.62;100.00;101271.13;4979665;28;20502;-75
2022/04/19 04:43:51;;;;;;;11.55;4.57;;;3.20;99.90;;;2.79;98.70;101274.22;4977612;28;20053;-75
2022/04/19 04:51:46;;;;;;;11.50;4.20;;;8.70;99.90;;;11.93;63.30;101275.66;4971469;28;20198;-75
2022/04/19 04:54:14;;;;;;;6.35;3.75;;;10.30;99.90;;;14.00;54.79;101270.25;4977466;28;20519;-75
2022/04/19 04:56:40;;;;;;;5.45;3.53;;;11.70;99.90;;;15.69;49.34;101274.09;4978223;28;20065;-76
2022/04/19 04:59:06;;;;;;;7.60;3.80;;;13.00;99.90;;;17.01;45.48;101285.44;4970250;28;20037;-76
2022/04/19 05:01:32;;;;;;;5.75;3.28;;;14.10;99.90;;;18.22;42.25;101295.09;4970286;28;20113;-76
2022/04/19 05:03:58;;;;;;;7.82;3.50;;;15.00;99.90;;;19.20;39.72;101305.03;4948743;28;20801;-76
2022/04/19 05:06:23;;;;;;;8.43;3.45;;;15.80;99.70;;;19.92;38.43;101317.53;4962069;28;20056;-75
2022/04/19 05:08:49;;;;;;;7.57;3.47;;;16.50;99.00;;;20.87;37.17;101334.16;4963339;28;20030;-76
2022/04/19 05:11:15;;;;;;;8.20;3.28;;;17.30;97.10;;;21.97;35.25;101344.78;4946851;28;20042;-76
2022/04/19 05:13:41;;;;;;;6.07;3.00;;;18.10;96.60;;;23.12;33.57;101362.44;4969296;28;20036;-76
2022/04/19 05:16:08;;;;;;;5.07;3.20;;;18.80;93.80;;;23.80;32.22;101369.78;4980538;28;20057;-75
2022/04/19 05:18:34;;;;;;;6.10;3.17;;;19.00;91.70;;;23.08;32.35;101377.13;4945104;28;20042;-76
2022/04/19 05:21:00;;;;;;;6.00;3.17;;;19.20;90.50;;;23.34;31.83;101390.91;4971631;28;20023;-76
2022/04/19 05:23:26;;;;;;;5.72;3.30;;;19.10;90.10;;;22.97;31.91;101404.06;4970485;28;20376;-76
2022/04/19 05:25:51;;;;;;;6.72;3.38;;;19.30;90.90;;;23.71;31.64;101414.47;4978686;28;20112;-76
2022/04/19 05:28:18;;;;;;;4.38;2.90;;;19.40;89.50;;;24.14;30.46;101431.16;4969384;28;20030;-76
2022/04/19 05:30:43;;;;;;;5.32;2.60;;;19.30;88.40;;;23.69;30.78;101434.38;4976856;28;20034;-76
2022/04/19 05:33:11;;;;;;;4.03;2.60;;;19.40;88.50;;;23.99;30.20;101448.75;4976571;28;20088;-77
2022/04/19 05:35:38;;;;;;;8.05;3.25;;;19.30;87.90;;;23.72;30.75;101455.63;4961123;28;20493;-76
2022/04/19 05:38:04;;;;;;;3.90;2.50;;;19.40;88.60;;;23.61;30.66;101463.81;4970120;28;20035;-76
2022/04/19 05:40:30;;;;;;;5.25;2.60;;;19.20;87.60;;;23.53;30.87;101464.50;4966380;28;20038;-77
2022/04/19 05:42:55;;;;;;;5.28;3.38;;;19.80;90.00;;;25.43;29.41;101480.03;4973528;28;20451;-77
2022/04/19 05:45:21;;;;;;;6.07;2.80;;;20.40;86.00;;;25.92;27.52;101494.09;4979403;28;20022;-77
2022/04/19 05:47:47;;;;;;;5.90;2.55;;;20.30;85.50;;;25.22;28.55;101499.13;4964473;28;20164;-76
2022/04/19 05:50:13;;;;;;;4.15;2.40;;;20.40;85.60;;;25.37;28.47;101503.88;4966234;28;20498;-77
2022/04/19 05:52:39;;;;;;;5.47;2.60;;;20.90;85.40;;;26.57;27.28;101518.13;4966615;28;20154;-77
2022/04/19 05:55:05;;;;;;;5.30;2.63;;;20.90;82.00;;;25.93;27.11;101523.59;4980008;28;20467;-76
2022/04/19 05:57:31;;;;;;;5.53;2.35;;;21.10;83.20;;;25.09;27.86;101516.44;4976406;28;20045;-77
2022/04/19 05:59:57;;;;;;;5.78;2.47;;;21.20;82.00;;;26.10;27.50;101523.75;4981321;28;20492;-76
2022/04/19 06:05:08;;;;;;;4.20;2.45;;;20.40;80.10;;;24.39;28.27;101536.53;4976328;28;20060;-76
2022/04/19 06:07:47;;;;;;;6.13;2.20;;;20.50;81.10;;;24.99;26.96;101550.66;4982729;28;20057;-77
2022/04/19 06:10:14;;;;;;;5.07;2.10;;;20.20;77.40;;;24.25;27.31;101554.78;4974900;28;20041;-77
2022/04/19 06:12:41;;;;;;;4.70;1.98;;;19.90;79.70;;;21.40;30.39;101539.69;4980296;28;20113;-76
2022/04/19 06:15:09;;;;;;;4.53;1.85;;;18.80;80.00;;;19.17;33.16;101543.72;4974674;28;20113;-76
2022/04/19 06:17:35;;;;;;;4.75;2.20;;;18.20;83.00;;;20.48;32.63;101528.91;4980094;28;20034;-76
2022/04/19 06:20:05;;;;;;;3.22;1.92;;;17.60;81.40;;;18.34;33.23;101548.50;4968213;28;20046;-77
2022/04/19 06:22:34;;;;;;;3.92;1.88;;;16.90;84.10;;;16.52;36.56;101549.06;4981330;28;20125;-76
2022/04/19 06:25:01;;;;;;;4.75;2.10;;;16.10;83.70;;;16.28;36.50;101540.69;4982314;28;20046;-76
2022/04/19 06:27:27;;;;;;;3.17;1.38;;;15.60;86.60;;;16.20;36.89;101534.97;4980952;28;20018;-77
2022/04/19 06:29:56;;;;;;;3.80;1.52;;;15.20;87.50;;;15.68;37.48;101537.84;4973829;28;20029;-77
2022/04/19 06:32:22;;;;;;;2.78;1.40;;;14.80;87.80;;;14.13;39.82;101547.56;4964150;28;20497;-77
2022/04/19 06:34:49;;;;;;;4.82;1.70;;;14.40;90.20;;;14.66;40.57;101535.25;4981496;28;20042;-77
2022/04/19 06:37:15;;;;;;;2.92;1.27;;;14.40;90.70;;;14.62;39.54;101533.72;4966777;28;20409;-76
2022/04/19 06:39:41;;;;;;;7.32;2.28;;;14.00;90.90;;;14.98;40.44;101528.31;4974162;28;20042;-76
2022/04/19 06:42:09;;;;;;;4.13;1.83;;;14.50;90.70;;;17.28;36.67;101524.13;4963916;28;20033;-76
2022/04/19 06:44:38;;;;;;;3.50;1.50;;;15.40;89.40;;;19.00;33.05;101528.88;4974071;28;20033;-77
2022/04/19 06:47:05;;;;;;;6.07;1.95;;;16.50;87.10;;;20.36;31.29;101538.69;4984011;28;20042;-76
2022/04/19 06:49:30;;;;;;;5.05;1.50;;;17.30;82.00;;;20.29;30.61;101543.66;4980092;28;20497;-77
2022/04/19 06:51:56;;;;;;;3.22;1.98;;;18.40;82.10;;;21.92;29.76;101551.56;4964456;28;20080;-77
2022/04/19 06:54:22;;;;;;;5.95;1.83;;;19.50;79.00;;;22.61;28.26;101555.75;4955791;28;22736;-77
2022/04/19 06:56:48;;;;;;;3.90;1.67;;;20.20;77.00;;;23.28;28.04;101565.25;4962806;28;20044;-77
2022/04/19 06:59:13;;;;;;;3.10;1.75;;;20.70;74.40;;;22.86;27.60;101578.69;4962609;28;20546;-75
2022/04/19 07:01:42;;;;;;;3.75;1.67;;;21.20;73.10;;;23.59;27.27;101582.25;4972045;28;20042;-76
2022/04/19 07:04:10;;;;;;;4.47;1.58;;;21.50;72.60;;;23.61;27.05;101591.03;4971239;28;20484;-77
2022/04/19 07:06:37;;;;;;;4.30;1.75;;;21.70;67.90;;;22.78;26.42;101602.66;4982139;28;20454;-75
2022/04/19 07:09:03;;;;;;;3.90;1.65;;;21.70;71.30;;;23.13;26.91;101597.84;4979898;28;20030;-80
2022/04/19 07:11:29;;;;;;;4.07;1.67;;;21.90;71.30;;;23.41;27.15;101597.28;4954509;28;20606;-79
2022/04/19 07:13:56;;;;;;;5.97;1.65;;;21.70;66.70;;;22.29;27.10;101608.47;4983085;28;20037;-77
2022/04/19 07:16:22;;;;;;;3.60;1.73;;;21.60;66.70;;;22.31;27.07;101614.56;4991830;28;20061;-77
2022/04/19 07:18:47;;;;;;;3.85;1.35;;;20.90;67.90;;;20.88;27.98;101615.09;4955354;28;20562;-77
2022/04/19 07:26:44;;;;;;;6.63;1.35;;;21.40;66.10;;;21.79;26.82;101636.66;4980127;28;20037;-77
2022/04/19 07:29:12;;;;;;;2.55;1.30;;;21.60;64.50;;;21.97;26.41;101639.72;4979940;28;20058;-76
2022/04/19 07:31:41;;;;;;;2.90;1.30;;;21.70;66.90;;;22.23;27.39;101640.31;4972687;28;20561;-77
2022/04/19 07:34:07;;;;;;;4.65;1.38;;;21.60;64.50;;;21.67;26.91;101641.19;4970783;28;20030;-77
2022/04/19 07:36:40;;;;;;;4.32;1.38;;;21.60;65.30;;;21.09;27.86;101644.69;4964444;28;20042;-77
2022/04/19 07:39:12;;;;;;;4.18;1.30;;;21.70;65.10;;;21.46;27.54;101641.03;4955173;28;20034;-76
2022/04/19 07:41:39;;;;;;;3.17;1.40;;;21.70;64.20;;;21.21;27.17;101650.06;4980475;28;20014;-76
2022/04/19 07:44:08;;;;;;;5.63;1.30;;;21.40;66.00;;;20.92;28.67;101647.81;4979800;28;20689;-78
2022/04/19 07:46:35;;;;;;;2.85;1.10;;;21.90;65.00;;;21.96;27.07;101648.72;4969129;28;20041;-77
2022/04/19 07:49:02;;;;;;;5.85;1.30;;;22.40;63.50;;;22.19;26.58;101657.59;4976755;28;20417;-76
2022/04/19 07:51:29;;;;;;;3.22;1.10;;;22.00;60.40;;;21.01;26.98;101654.28;4971723;28;20034;-76
2022/04/19 07:53:55;;;;;;;1.67;1.10;;;21.80;62.80;;;21.18;27.55;101653.00;4971690;28;20045;-77
2022/04/19 07:56:22;;;;;;;3.03;1.90;;;22.00;64.30;;;21.31;27.42;101654.59;4964219;28;20037;-77
2022/04/19 07:58:49;;;;;;;3.08;1.33;;;21.70;63.70;;;20.85;27.63;101671.50;4971631;28;20109;-76
2022/04/19 08:01:16;;;;;;;15.30;1.50;;;21.80;62.60;;;21.22;27.37;101662.50;4956626;28;20034;-77
2022/04/19 08:03:43;;;;;;;5.10;1.23;;;21.60;63.20;;;20.52;27.83;101664.16;4977869;28;20155;-77
2022/04/19 08:06:10;;;;;;;2.42;1.60;;;21.30;63.70;;;20.23;28.40;101656.44;4977667;28;20023;-77
2022/04/19 08:08:37;;;;;;;3.30;1.00;;;21.40;64.90;;;20.54;28.23;101664.91;4967725;28;20119;-77
2022/04/19 08:11:05;;;;;;;2.65;0.88;;;20.40;60.80;;;18.78;28.35;101662.06;4966066;28;20379;-77
2022/04/19 08:13:31;;;;;;;5.50;1.00;;;19.70;61.80;;;17.63;29.54;101655.06;4962140;28;20026;-77
2022/04/19 08:15:57;;;;;;;9.05;1.33;;;19.10;68.00;;;17.71;31.58;101656.38;4969539;28;20041;-77
2022/04/19 08:18:23;;;;;;;4.63;1.15;;;19.10;67.80;;;18.07;31.60;101641.75;4952759;28;20030;-77
2022/04/19 08:20:51;;;;;;;3.78;1.60;;;19.00;67.40;;;17.80;30.65;101640.69;4972105;28;20027;-77
2022/04/19 08:23:17;;;;;;;4.72;1.30;;;18.80;68.00;;;17.89;31.06;101646.44;4954185;28;20022;-77
2022/04/19 08:25:43;;;;;;;4.43;1.98;;;19.10;69.60;;;18.42;31.18;101634.13;4959085;28;20078;-77
2022/04/19 08:28:10;;;;;;;6.53;2.80;;;19.00;67.80;;;18.05;31.29;101636.50;4966101;28;20042;-77
2022/04/19 08:30:36;;;;;;;6.32;2.05;;;18.70;69.30;;;17.51;32.02;101636.31;4972138;28;20069;-76
2022/04/19 08:33:02;;;;;;;4.60;1.90;;;18.50;69.80;;;16.99;32.42;101638.50;4968841;28;20481;-76
2022/04/19 08:35:27;;;;;;;5.72;2.17;;;17.70;70.30;;;15.82;33.67;101627.44;4972414;28;20492;-76
2022/04/19 08:37:54;;;;;;;5.55;2.00;;;17.40;67.90;;;15.78;32.76;101632.88;4967354;28;20050;-77
2022/04/19 08:40:20;;;;;;;5.43;2.50;;;16.60;68.40;;;15.06;33.44;101638.47;4953276;28;20026;-77
2022/04/19 08:42:47;;;;;;;6.95;2.03;;;16.60;71.90;;;15.30;34.99;101628.38;4969125;28;20504;-76
2022/04/19 08:45:15;;;;;;;3.03;1.30;;;16.30;71.20;;;14.76;34.18;101636.41;4969938;28;20121;-77
2022/04/19 08:47:44;;;;;;;3.67;2.33;;;15.90;73.70;;;14.74;35.68;101632.97;4975840;28;20081;-77
2022/04/19 08:50:14;;;;;;;3.50;1.17;;;15.90;73.90;;;14.82;35.61;101638.75;4958649;28;20030;-75
2022/04/19 08:52:41;;;;;;;6.15;1.58;;;15.50;72.60;;;14.48;35.20;101627.13;4951122;28;20377;-77
2022/04/19 08:57:54;;;;;;;3.13;1.30;;;14.60;74.20;;;13.25;36.73;101608.94;4968508;28;20169;-77
2022/04/19 09:00:24;;;;;;;3.72;1.65;;;14.20;76.70;;;12.90;38.11;101619.22;4974141;28;20085;-76
2022/04/19 09:02:53;;;;;;;3.95;1.42;;;14.10;77.10;;;12.81;38.38;101617.00;4972967;28;20387;-77
2022/04/19 09:05:27;;;;;;;4.35;1.33;;;13.80;77.30;;;12.20;39.52;101625.63;4977152;28;20088;-76
2022/04/19 09:07:57;;;;;;;3.60;1.60;;;13.50;78.20;;;11.95;40.11;101617.78;4964039;28;20302;-76
2022/04/19 09:10:35;;;;;;;1.70;1.10;;;13.30;80.40;;;11.82;40.69;101614.69;4945647;28;21257;-77
2022/04/19 09:13:10;;;;;;;2.97;1.20;;;13.30;82.00;;;12.16;41.22;101615.22;4968439;28;20040;-76
2022/04/19 09:15:45;;;;;;;2.15;1.17;;;13.50;83.50;;;12.37;41.28;101611.72;4949188;28;20046;-76
2022/04/19 09:18:32;;;;;;;4.68;1.00;;;13.40;80.20;;;11.98;39.65;101612.34;4969626;28;20485;-76
2022/04/19 09:20:59;;;;;;;2.92;0.75;;;13.10;78.60;;;11.58;39.45;101600.66;4982178;28;20048;-77
2022/04/19 09:23:29;;;;;;;3.42;1.10;;;13.00;81.00;;;11.76;41.30;101600.88;4964373;28;20076;-76
2022/04/19 09:26:01;;;;;;;4.97;1.20;;;13.10;78.60;;;11.90;39.39;101593.34;4970694;28;20042;-75
2022/04/19 09:28:28;;;;;;;1.73;0.80;;;13.20;77.60;;;12.00;38.73;101601.75;4972272;28;20489;-77
2022/04/19 09:30:58;;;;;;;2.78;1.10;;;13.20;78.50;;;11.99;39.28;101590.34;4981636;28;20026;-76
2022/04/19 09:33:28;;;;;;;3.70;1.20;;;13.30;84.00;;;12.29;42.01;101590.91;4963204;28;20076;-76
2022/04/19 09:35:56;;;;;;;2.60;1.25;;;13.20;83.10;;;12.13;41.29;101573.94;4972785;28;20045;-76
2022/04/19 09:38:35;;;;;;;3.13;1.35;;;12.90;80.90;;;11.65;40.95;101580.19;4964876;28;20414;-76
2022/04/19 09:41:02;;;;;;;3.13;1.20;;;13.00;85.80;;;11.87;43.40;101578.44;4980879;28;20072;-76
2022/04/19 09:43:29;;;;;;;6.30;2.40;;;13.10;84.80;;;11.97;43.10;101576.34;4958455;28;20033;-76
2022/04/19 09:45:58;;;;;;;2.75;1.10;;;13.10;81.90;;;11.69;41.45;101573.88;4971052;28;20065;-77
2022/04/19 09:48:34;;;;;;;1.73;1.08;;;12.90;82.40;;;11.29;42.04;101572.69;4958190;28;20037;-76
2022/04/19 09:51:09;;;;;;;3.42;1.48;;;12.90;86.00;;;11.68;43.63;101572.13;4964625;28;20164;-77
2022/04/19 09:53:46;;;;;;;3.95;1.08;;;12.70;86.60;;;11.41;44.02;101566.13;4979392;28;20575;-76
2022/04/19 09:56:19;;;;;;;1.88;0.80;;;12.80;85.90;;;11.49;43.29;101561.44;4962157;28;20101;-76
2022/04/19 09:58:50;;;;;;;2.20;1.10;;;12.90;88.50;;;11.82;44.59;101555.78;4965690;28;20026;-76
2022/04/19 10:09:38;;;;;;;4.25;1.83;;;13.20;88.70;;;12.22;45.12;101554.25;4973198;28;20040;-76
2022/04/19 10:12:07;;;;;;;7.28;2.50;;;13.30;90.20;;;12.24;46.61;101555.88;4971690;28;20209;-76
2022/04/19 10:14:35;;;;;;;2.95;1.05;;;13.50;91.00;;;12.23;46.70;101554.19;4973572;28;20044;-77
2022/04/19 10:17:04;;;;;;;2.80;1.70;;;13.20;90.50;;;11.83;46.88;101552.22;4972110;28;20539;-76
2022/04/19 10:19:31;;;;;;;4.93;2.10;;;13.00;90.90;;;11.55;47.88;101542.72;4972964;28;20030;-77
2022/04/19 10:22:08;;;;;;;5.53;2.72;;;12.80;91.00;;;11.46;48.79;101546.56;4979805;28;20030;-77
2022/04/19 10:24:52;;;;;;;8.07;3.05;;;13.10;91.90;;;12.08;48.22;101529.25;4971327;28;20513;-76
2022/04/19 10:27:18;;;;;;;5.03;2.50;;;12.90;90.70;;;11.73;47.82;101535.91;4968141;28;21070;-77
2022/04/19 10:29:46;;;;;;;2.90;2.30;;;13.10;91.60;;;11.85;48.70;101530.13;4971323;28;20022;-77
2022/04/19 10:32:12;;;;;;;4.75;2.10;;;13.20;92.10;;;12.17;48.51;101535.09;4965975;28;20034;-76
2022/04/19 10:34:41;;;;;;;3.53;1.67;;;13.40;92.40;;;12.41;49.06;101527.94;4967901;28;20045;-77
2022/04/19 10:37:15;;;;;;;4.57;1.45;;;13.50;92.60;;;12.65;49.14;101518.97;4965945;28;20031;-81
2022/04/19 10:39:59;;;;;;;3.45;1.38;;;13.70;91.40;;;12.70;47.36;101524.94;4976227;28;20045;-77
2022/04/19 10:42:40;;;;;;;4.20;1.60;;;13.80;92.10;;;12.81;48.15;101529.78;4961269;28;20050;-77
2022/04/19 10:45:14;;;;;;;6.65;1.75;;;13.80;91.20;;;12.78;48.13;101519.31;4978045;28;20037;-77
2022/04/19 10:47:58;;;;;;;5.57;1.77;;;13.70;91.50;;;12.57;48.79;101523.75;4981342;28;20486;-78
2022/04/19 10:50:44;;;;;;;3.67;1.60;;;13.70;92.20;;;12.73;48.42;101522.16;4955727;28;20030;-77
2022/04/19 10:53:14;;;;;;;6.85;1.67;;;13.80;90.80;;;12.76;47.65;101517.66;4963909;28;20026;-77